createdAt,value
2022-12-08T00:01:09.777Z,94.03
2022-12-08T00:03:36.910Z,94.17
2022-12-08T00:06:23.999Z,93.72
2022-12-08T00:09:09.276Z,94.14
2022-12-08T00:11:37.788Z,94.51
2022-12-08T00:14:04.388Z,94.13
2022-12-08T00:16:30.851Z,94.52
2022-12-08T00:18:57.248Z,94.38
2022-12-08T00:21:23.625Z,94.42
2022-12-08T00:23:50.040Z,94.41
2022-12-08T00:26:20.321Z,94.45
2022-12-08T00:28:47.480Z,94.79
2022-12-08T00:31:13.839Z,94.95
2022-12-08T00:33:40.289Z,93.92
2022-12-08T00:36:12.734Z,93.71
2022-12-08T00:38:39.788Z,93.32
2022-12-08T00:41:14.279Z,93.28
2022-12-08T00:43:40.723Z,93.16
2022-12-08T00:46:07.271Z,93.25
2022-12-08T00:48:33.720Z,93.05
2022-12-08T00:51:00.225Z,92.85
2022-12-08T00:53:26.589Z,93.09
2022-12-08T00:55:53.071Z,93.24
2022-12-08T00:58:19.450Z,93.43
2022-12-08T01:00:45.947Z,93.12
2022-12-08T01:03:12.788Z,92.87
2022-12-08T01:05:39.512Z,92.54
2022-12-08T01:08:07.656Z,92.94
2022-12-08T01:10:37.993Z,93.29
2022-12-08T01:13:04.562Z,93.06
2022-12-08T01:15:30.975Z,93.27
2022-12-08T01:17:57.476Z,93.23
2022-12-08T01:20:23.880Z,92.84
2022-12-08T01:22:50.243Z,92.82
2022-12-08T01:25:16.673Z,93.17
2022-12-08T01:27:43.102Z,93.04
2022-12-08T01:30:10.182Z,93.78
2022-12-08T01:32:36.860Z,93.74
2022-12-08T01:35:03.860Z,94.17
2022-12-08T01:37:30.430Z,94.38
2022-12-08T01:40:03.743Z,93.88
2022-12-08T01:42:32.383Z,93.76
2022-12-08T01:45:02.862Z,93.30
2022-12-08T01:47:37.544Z,92.55
2022-12-08T01:50:08.683Z,92.83
2022-12-08T01:52:46.978Z,93.06
2022-12-08T01:55:19.691Z,92.58
2022-12-08T01:58:00.672Z,92.58
2022-12-08T02:00:27.154Z,93.07
2022-12-08T02:03:04.603Z,92.84
2022-12-08T02:05:36.108Z,92.41
2022-12-08T02:08:07.022Z,92.68
2022-12-08T02:10:35.245Z,92.63
2022-12-08T02:13:04.570Z,92.35
2022-12-08T02:15:49.204Z,92.63
2022-12-08T02:18:27.002Z,92.89
2022-12-08T02:21:03.802Z,93.44
2022-12-08T02:23:49.158Z,93.25
2022-12-08T02:26:24.796Z,93.61
2022-12-08T02:29:02.175Z,93.34
2022-12-08T02:31:52.426Z,93.28
2022-12-08T02:34:48.372Z,93.16
2022-12-08T02:37:38.383Z,93.21
2022-12-08T02:40:33.886Z,93.27
2022-12-08T02:43:17.498Z,93.76
2022-12-08T02:45:50.320Z,93.37
2022-12-08T02:48:17.113Z,93.13
2022-12-08T02:50:43.878Z,93.36
2022-12-08T02:56:02.937Z,92.72
2022-12-08T02:58:57.365Z,92.19
2022-12-08T03:01:54.012Z,92.61
2022-12-08T03:04:35.017Z,92.51
2022-12-08T03:07:13.809Z,92.15
2022-12-08T03:09:48.791Z,91.88
2022-12-08T03:12:26.394Z,91.58
2022-12-08T03:14:55.282Z,91.28
2022-12-08T03:17:26.191Z,90.75
2022-12-08T03:19:54.489Z,91.35
2022-12-08T03:22:27.967Z,91.38
2022-12-08T03:24:56.438Z,91.67
2022-12-08T03:27:30.534Z,91.58
2022-12-08T03:29:59.018Z,91.74
2022-12-08T03:33:03.116Z,91.13
2022-12-08T03:35:33.069Z,91.28
2022-12-08T03:38:12.458Z,91.00
2022-12-08T03:40:39.769Z,90.68
2022-12-08T03:43:07.492Z,90.26
2022-12-08T03:45:34.526Z,90.32
2022-12-08T03:48:01.212Z,90.54
2022-12-08T03:50:27.820Z,90.71
2022-12-08T03:52:54.357Z,90.75
2022-12-08T03:55:21.554Z,90.55
2022-12-08T03:57:48.233Z,90.92
2022-12-08T04:00:16.417Z,91.56
2022-12-08T04:02:43.144Z,90.73
2022-12-08T04:05:09.970Z,90.82
2022-12-08T04:07:36.795Z,90.81
2022-12-08T04:10:04.439Z,90.51
2022-12-08T04:12:31.343Z,91.25
2022-12-08T04:14:57.958Z,91.16
2022-12-08T04:17:24.609Z,91.33
2022-12-08T04:19:51.265Z,89.98
2022-12-08T04:22:17.898Z,90.41
2022-12-08T04:24:44.661Z,90.56
2022-12-08T04:27:11.297Z,89.73
2022-12-08T04:29:43.788Z,89.92
2022-12-08T04:32:12.704Z,89.39
2022-12-08T04:34:39.743Z,89.47
2022-12-08T04:37:06.412Z,89.40
2022-12-08T04:39:33.045Z,89.86
2022-12-08T04:41:59.665Z,89.41
2022-12-08T04:44:28.755Z,90.04
2022-12-08T04:46:55.498Z,89.48
2022-12-08T04:49:22.258Z,90.02
2022-12-08T04:51:51.282Z,89.38
2022-12-08T04:54:17.949Z,89.22
2022-12-08T04:56:44.605Z,89.37
2022-12-08T04:59:11.120Z,90.02
2022-12-08T05:01:37.942Z,89.65
2022-12-08T05:04:04.886Z,89.52
2022-12-08T05:06:31.656Z,89.42
2022-12-08T05:08:58.396Z,89.38
2022-12-08T05:11:25.131Z,89.34
2022-12-08T05:14:02.245Z,89.22
2022-12-08T05:16:29.219Z,88.92
2022-12-08T05:18:55.891Z,89.61
2022-12-08T05:21:22.715Z,89.48
2022-12-08T05:23:49.344Z,89.64
2022-12-08T05:26:15.990Z,90.17
2022-12-08T05:28:43.577Z,90.52
2022-12-08T05:31:14.631Z,90.38
2022-12-08T05:33:41.852Z,90.64
2022-12-08T05:36:10.258Z,91.75
2022-12-08T05:38:37.678Z,91.91
2022-12-08T05:41:09.817Z,92.05
2022-12-08T05:43:39.704Z,92.42
2022-12-08T05:46:08.822Z,92.52
2022-12-08T05:48:46.561Z,93.30
2022-12-08T05:51:24.707Z,93.31
2022-12-08T05:53:53.505Z,93.32
2022-12-08T05:56:27.228Z,93.43
2022-12-08T05:59:01.934Z,93.86
2022-12-08T06:01:37.217Z,93.99
2022-12-08T06:04:04.775Z,94.35
2022-12-08T06:06:34.665Z,94.78
2022-12-08T06:09:07.671Z,94.08
2022-12-08T06:11:34.559Z,94.03
2022-12-08T06:14:01.978Z,93.88
2022-12-08T06:16:29.503Z,93.21
2022-12-08T06:18:57.367Z,93.83
2022-12-08T06:21:24.421Z,93.64
2022-12-08T06:23:53.955Z,93.19
2022-12-08T06:26:21.506Z,93.48
2022-12-08T06:28:59.929Z,93.55
2022-12-08T06:31:34.978Z,93.68
2022-12-08T06:34:01.719Z,93.62
2022-12-08T06:36:28.790Z,93.47
2022-12-08T06:38:56.586Z,93.43
2022-12-08T06:41:23.363Z,93.43
2022-12-08T06:43:50.472Z,93.45
2022-12-08T06:46:21.502Z,93.40
2022-12-08T06:48:51.017Z,92.99
2022-12-08T06:51:23.593Z,93.12
2022-12-08T06:53:50.633Z,93.01
2022-12-08T06:56:20.117Z,93.29
2022-12-08T06:58:52.431Z,93.01
2022-12-08T07:01:20.254Z,92.91
2022-12-08T07:03:50.830Z,93.05
2022-12-08T07:06:23.509Z,92.90
2022-12-08T07:08:50.468Z,93.30
2022-12-08T07:11:21.480Z,92.56
2022-12-08T07:13:49.403Z,93.13
2022-12-08T07:16:17.283Z,93.21
2022-12-08T07:18:44.454Z,92.73
2022-12-08T07:21:13.463Z,93.01
2022-12-08T07:23:40.781Z,92.44
2022-12-08T07:26:44.195Z,92.81
2022-12-08T07:29:13.798Z,92.77
2022-12-08T07:31:40.560Z,92.71
2022-12-08T07:34:07.533Z,92.90
2022-12-08T07:36:34.597Z,92.23
2022-12-08T07:39:01.438Z,92.04
2022-12-08T07:41:28.665Z,92.13
2022-12-08T07:43:58.339Z,92.30
2022-12-08T07:46:26.804Z,91.91
2022-12-08T07:48:54.690Z,91.87
2022-12-08T07:51:21.582Z,92.10
2022-12-08T07:53:54.693Z,91.28
2022-12-08T07:56:22.486Z,90.87
2022-12-08T07:58:49.316Z,89.93
2022-12-08T08:01:31.268Z,91.22
2022-12-08T08:04:02.733Z,91.03
2022-12-08T08:06:33.740Z,90.59
2022-12-08T08:09:00.770Z,90.05
2022-12-08T08:11:27.555Z,90.51
2022-12-08T08:13:54.254Z,90.82
2022-12-08T08:16:21.786Z,90.26
2022-12-08T08:18:50.218Z,90.15
2022-12-08T08:24:05.641Z,90.55
2022-12-08T08:26:32.599Z,89.75
2022-12-08T08:29:01.377Z,89.92
2022-12-08T08:31:29.743Z,89.39
2022-12-08T08:34:16.491Z,90.01
2022-12-08T08:36:54.871Z,89.83
2022-12-08T08:39:21.716Z,90.06
2022-12-08T08:41:48.754Z,89.36
2022-12-08T08:44:18.493Z,89.29
2022-12-08T08:46:45.453Z,88.91
2022-12-08T08:49:12.469Z,89.38
2022-12-08T08:51:40.131Z,89.60
2022-12-08T08:54:06.904Z,88.99
2022-12-08T08:56:36.578Z,89.09
2022-12-08T08:59:06.943Z,89.20
2022-12-08T09:01:34.391Z,88.87
2022-12-08T09:04:01.673Z,88.28
2022-12-08T09:06:30.648Z,88.24
2022-12-08T09:08:57.498Z,88.63
2022-12-08T09:11:24.212Z,87.94
2022-12-08T09:13:52.523Z,88.65
2022-12-08T09:16:20.037Z,88.96
2022-12-08T09:18:49.338Z,88.61
2022-12-08T09:21:22.603Z,88.56
2022-12-08T09:23:51.205Z,88.23
2022-12-08T09:26:18.276Z,88.42
2022-12-08T09:28:47.764Z,87.97
2022-12-08T09:31:14.905Z,88.12
2022-12-08T09:33:42.317Z,88.18
2022-12-08T09:36:11.270Z,87.90
2022-12-08T09:38:39.101Z,87.26
2022-12-08T09:41:44.853Z,87.59
2022-12-08T09:44:38.926Z,87.23
2022-12-08T09:47:09.263Z,87.34
2022-12-08T09:49:45.289Z,87.74
2022-12-08T09:52:23.553Z,86.70
2022-12-08T09:54:50.712Z,86.03
2022-12-08T09:57:20.556Z,86.53
2022-12-08T09:59:56.198Z,87.18
2022-12-08T10:02:25.831Z,87.07
2022-12-08T10:04:55.862Z,86.32
2022-12-08T10:07:22.494Z,86.62
2022-12-08T10:10:32.864Z,85.16
2022-12-08T10:13:21.812Z,85.69
2022-12-08T10:16:28.000Z,85.73
2022-12-08T10:19:07.903Z,85.86
2022-12-08T10:21:34.620Z,85.88
2022-12-08T10:24:13.538Z,85.68
2022-12-08T10:26:40.551Z,85.95
2022-12-08T10:29:13.207Z,86.30
2022-12-08T10:31:40.332Z,85.50
2022-12-08T10:34:26.165Z,85.27
2022-12-08T10:36:58.666Z,84.80
2022-12-08T10:39:32.559Z,85.68
2022-12-08T10:42:14.441Z,85.55
2022-12-08T10:45:15.938Z,84.50
2022-12-08T10:47:45.317Z,84.36
2022-12-08T10:50:30.425Z,84.28
2022-12-08T10:53:13.189Z,84.21
2022-12-08T10:55:43.448Z,83.23
2022-12-08T10:58:40.821Z,83.37
2022-12-08T11:01:47.217Z,83.22
2022-12-08T11:04:39.451Z,82.75
2022-12-08T11:07:08.722Z,83.93
2022-12-08T11:09:48.142Z,83.28
2022-12-08T11:12:16.841Z,83.55
2022-12-08T11:14:46.004Z,83.92
2022-12-08T11:17:36.088Z,83.49
2022-12-08T11:20:08.926Z,84.58
2022-12-08T11:22:41.527Z,83.15
2022-12-08T11:25:18.059Z,83.27
2022-12-08T11:27:48.464Z,84.13
2022-12-08T11:31:22.168Z,83.09
2022-12-08T11:33:55.470Z,82.79
2022-12-08T11:36:29.323Z,82.99
2022-12-08T11:39:00.009Z,82.27
2022-12-08T11:41:32.162Z,83.10
2022-12-08T11:44:05.057Z,82.82
2022-12-08T11:46:34.112Z,82.90
2022-12-08T11:49:13.524Z,82.80
2022-12-08T11:51:46.278Z,83.47
2022-12-08T11:54:40.566Z,82.79
2022-12-08T11:57:20.803Z,83.14
2022-12-08T11:59:54.509Z,82.61
2022-12-08T12:02:28.792Z,82.89
2022-12-08T12:08:37.508Z,83.90
2022-12-08T12:11:59.822Z,83.14
2022-12-08T12:14:46.945Z,83.68
2022-12-08T12:17:41.702Z,83.17
2022-12-08T12:20:32.243Z,83.97
2022-12-08T12:23:10.213Z,83.17
2022-12-08T12:25:37.723Z,83.08
2022-12-08T12:28:08.716Z,83.42
2022-12-08T12:30:59.239Z,82.71
2022-12-08T12:33:26.479Z,83.33
2022-12-08T12:35:57.622Z,82.82
2022-12-08T12:38:54.698Z,83.36
2022-12-08T12:41:43.503Z,83.73
2022-12-08T12:44:13.267Z,83.04
2022-12-08T12:46:45.999Z,82.43
2022-12-08T12:49:42.344Z,83.38
2022-12-08T12:52:15.200Z,83.33
2022-12-08T12:54:43.492Z,83.58
2022-12-08T12:57:13.120Z,84.65
2022-12-08T13:00:03.213Z,83.65
2022-12-08T13:02:49.297Z,83.75
2022-12-08T13:05:28.745Z,83.17
2022-12-08T13:07:57.947Z,83.20
2022-12-08T13:10:34.382Z,83.66
2022-12-08T13:13:21.483Z,83.05
2022-12-08T13:16:05.528Z,82.55
2022-12-08T13:18:51.958Z,82.67
2022-12-08T13:21:23.837Z,83.34
2022-12-08T13:24:10.565Z,82.99
2022-12-08T13:27:03.638Z,82.78
2022-12-08T13:29:35.244Z,82.65
2022-12-08T13:32:09.876Z,81.90
2022-12-08T13:34:51.961Z,81.71
2022-12-08T13:37:50.764Z,80.97
2022-12-08T13:40:30.373Z,80.67
2022-12-08T13:43:13.007Z,80.62
2022-12-08T13:55:53.672Z,81.10
2022-12-08T13:57:39.514Z,80.54
2022-12-08T14:00:15.387Z,80.80
2022-12-08T14:02:48.159Z,81.22
2022-12-08T14:05:34.578Z,81.05
2022-12-08T14:08:30.108Z,81.86
2022-12-08T14:11:08.153Z,82.50
2022-12-08T14:13:35.145Z,81.98
2022-12-08T14:16:02.388Z,81.73
2022-12-08T14:18:31.619Z,83.03
2022-12-08T14:21:20.775Z,82.01
2022-12-08T14:23:47.815Z,81.93
2022-12-08T14:26:14.662Z,82.06
2022-12-08T14:28:45.296Z,81.36
2022-12-08T14:31:14.436Z,81.50
2022-12-08T14:33:41.440Z,81.90
2022-12-08T14:36:09.935Z,81.66
2022-12-08T14:38:36.769Z,81.51
2022-12-08T14:41:04.996Z,81.16
2022-12-08T14:43:35.197Z,81.08
2022-12-08T14:46:07.152Z,80.54
2022-12-08T14:48:42.360Z,80.88
2022-12-08T14:51:15.679Z,80.88
2022-12-08T14:53:52.362Z,81.46
2022-12-08T14:56:39.134Z,80.41
2022-12-08T14:59:22.773Z,81.19
2022-12-08T15:01:53.463Z,81.62
2022-12-08T15:04:23.926Z,81.06
2022-12-08T15:07:13.906Z,80.95
2022-12-08T15:09:43.531Z,80.63
2022-12-08T15:12:15.108Z,80.97
2022-12-08T15:14:54.561Z,81.53
2022-12-08T15:17:34.635Z,80.65
2022-12-08T15:20:04.241Z,80.91
2022-12-08T15:22:31.677Z,80.75
2022-12-08T15:25:01.609Z,80.71
2022-12-08T15:27:28.332Z,81.21
2022-12-08T15:29:54.953Z,81.34
2022-12-08T15:32:23.434Z,81.45
2022-12-08T15:34:52.883Z,81.58
2022-12-08T15:37:22.501Z,81.22
2022-12-08T15:39:50.048Z,80.97
2022-12-08T15:42:21.670Z,81.71
2022-12-08T15:44:53.966Z,81.19
2022-12-08T15:47:27.635Z,81.66
2022-12-08T15:49:54.357Z,81.60
2022-12-08T15:52:24.050Z,81.68
2022-12-08T15:54:51.345Z,81.84
2022-12-08T15:57:53.420Z,81.84
2022-12-08T16:00:50.507Z,81.32
2022-12-08T16:03:59.892Z,81.63
2022-12-08T16:09:12.236Z,81.30
2022-12-08T16:12:07.588Z,81.42
2022-12-08T16:17:21.699Z,81.19
2022-12-08T16:19:48.636Z,80.95
2022-12-08T16:25:22.387Z,81.06
2022-12-08T16:30:43.192Z,81.19
2022-12-08T16:33:18.955Z,81.00
2022-12-08T16:35:45.850Z,81.08
2022-12-08T16:38:17.787Z,81.75
2022-12-08T16:41:06.870Z,81.56
2022-12-08T16:43:34.359Z,81.32
2022-12-08T16:46:02.746Z,81.74
2022-12-08T16:48:30.608Z,82.45
2022-12-08T16:51:01.838Z,81.94
2022-12-08T16:53:28.799Z,81.97
2022-12-08T16:55:58.570Z,81.48
2022-12-08T16:58:25.314Z,82.04
2022-12-08T17:01:01.419Z,82.39
2022-12-08T17:03:32.812Z,82.14
2022-12-08T17:06:06.828Z,82.46
2022-12-08T17:08:41.863Z,82.01
2022-12-08T17:11:27.976Z,82.54
2022-12-08T17:14:00.434Z,82.48
2022-12-08T17:16:27.359Z,82.23
2022-12-08T17:19:34.693Z,82.63
2022-12-08T17:23:37.388Z,82.47
2022-12-08T17:27:14.714Z,83.19
2022-12-08T17:30:50.697Z,82.79
2022-12-08T17:33:58.438Z,82.29
2022-12-08T17:36:57.218Z,82.30
2022-12-08T17:39:46.921Z,81.83
2022-12-08T17:50:15.984Z,83.08
2022-12-08T17:53:02.415Z,83.12
2022-12-08T17:55:42.843Z,83.31
2022-12-08T17:58:51.344Z,82.53
2022-12-08T18:01:49.452Z,81.92
2022-12-08T18:04:49.227Z,81.61
2022-12-08T18:07:25.252Z,81.42
2022-12-08T18:10:19.129Z,81.16
2022-12-08T18:12:54.130Z,81.69
2022-12-08T18:19:20.099Z,81.37
2022-12-08T18:26:52.599Z,82.43
2022-12-08T18:29:34.849Z,82.36
2022-12-08T18:33:16.243Z,82.57
2022-12-08T18:40:14.708Z,83.10
2022-12-08T18:46:34.628Z,82.82
2022-12-08T18:49:04.750Z,82.30
2022-12-08T18:51:49.341Z,82.46
2022-12-08T18:54:58.169Z,82.17
2022-12-08T18:58:16.836Z,82.32
2022-12-08T19:04:39.780Z,82.39
2022-12-08T19:07:20.004Z,82.82
2022-12-08T19:09:53.360Z,82.32
2022-12-08T19:12:40.242Z,82.45
2022-12-08T19:15:30.793Z,82.64
2022-12-08T19:18:11.400Z,83.29
2022-12-08T19:20:48.625Z,82.42
2022-12-08T19:23:33.076Z,82.48
2022-12-08T19:26:05.435Z,83.16
2022-12-08T19:28:42.183Z,83.00
2022-12-08T19:31:27.465Z,83.05
2022-12-08T19:34:01.662Z,83.91
2022-12-08T19:36:45.890Z,83.87
2022-12-08T19:39:40.634Z,84.12
2022-12-08T19:42:40.684Z,84.08
2022-12-08T19:45:30.583Z,83.97
2022-12-08T19:48:06.822Z,84.24
2022-12-08T19:50:41.696Z,83.94
2022-12-08T19:53:52.679Z,84.83
2022-12-08T19:56:22.718Z,85.10
2022-12-08T19:59:10.420Z,84.64
2022-12-08T20:01:44.090Z,84.71
2022-12-08T20:04:36.293Z,84.23
2022-12-08T20:07:26.128Z,84.49
2022-12-08T20:10:57.438Z,84.85
2022-12-08T20:14:48.254Z,85.17
2022-12-08T20:21:25.458Z,85.41
2022-12-08T20:25:00.797Z,86.12
2022-12-08T20:28:09.826Z,86.13
2022-12-08T20:30:44.207Z,85.35
2022-12-08T20:33:21.115Z,85.57
2022-12-08T20:36:25.929Z,85.83
2022-12-08T20:38:54.443Z,86.23
2022-12-08T20:41:26.696Z,86.47
2022-12-08T20:43:54.138Z,87.03
2022-12-08T20:46:21.373Z,87.04
2022-12-08T20:48:48.424Z,87.22
2022-12-08T20:51:19.747Z,87.23
2022-12-08T20:56:48.516Z,87.38
2022-12-08T20:59:18.237Z,87.63
2022-12-08T21:01:54.158Z,87.37
2022-12-08T21:04:24.187Z,87.47
2022-12-08T21:06:51.010Z,87.08
2022-12-08T21:09:18.772Z,87.31
2022-12-08T21:11:45.709Z,87.27
2022-12-08T21:14:12.570Z,87.37
2022-12-08T21:16:40.156Z,87.34
2022-12-08T21:19:07.549Z,87.00
2022-12-08T21:21:35.512Z,87.10
2022-12-08T21:24:03.556Z,86.83
2022-12-08T21:26:31.230Z,86.98
2022-12-08T21:29:01.439Z,87.16
2022-12-08T21:31:31.529Z,87.09
2022-12-08T21:34:03.182Z,86.88
2022-12-08T21:36:34.767Z,87.28
2022-12-08T21:39:02.827Z,87.34
2022-12-08T21:41:49.085Z,87.19
2022-12-08T21:44:20.163Z,87.32
2022-12-08T21:46:55.276Z,87.30
2022-12-08T21:49:30.582Z,87.26
2022-12-08T21:51:58.844Z,86.91
2022-12-08T21:54:25.973Z,87.30
2022-12-08T21:56:53.508Z,87.38
2022-12-08T21:59:20.836Z,87.32
2022-12-08T22:01:48.051Z,88.02
2022-12-08T22:04:27.713Z,87.85
2022-12-08T22:06:58.412Z,88.06
2022-12-08T22:09:30.566Z,88.48
2022-12-08T22:11:57.554Z,88.69
2022-12-08T22:14:27.762Z,89.01
2022-12-08T22:16:54.933Z,88.94
2022-12-08T22:19:24.483Z,89.04
2022-12-08T22:24:36.351Z,89.97
2022-12-08T22:27:06.420Z,89.47
2022-12-08T22:29:33.872Z,89.76
2022-12-08T22:32:00.897Z,90.08
2022-12-08T22:34:28.194Z,89.99
2022-12-08T22:36:57.717Z,90.04
2022-12-08T22:39:25.087Z,90.41
2022-12-08T22:41:52.597Z,90.64
2022-12-08T22:44:19.757Z,90.42
2022-12-08T22:46:46.805Z,90.50
2022-12-08T22:49:13.998Z,91.00
2022-12-08T22:51:41.233Z,90.57
2022-12-08T22:54:10.683Z,90.60
2022-12-08T22:56:38.005Z,90.41
2022-12-08T22:59:04.582Z,90.87
2022-12-08T23:01:32.832Z,90.55
2022-12-08T23:04:00.994Z,90.85
2022-12-08T23:06:29.199Z,90.85
2022-12-08T23:08:56.888Z,91.11
2022-12-08T23:11:27.688Z,91.17
2022-12-08T23:13:56.288Z,91.41
2022-12-08T23:16:23.200Z,91.00
2022-12-08T23:18:50.021Z,91.19
2022-12-08T23:21:19.035Z,91.43
2022-12-08T23:23:46.653Z,91.35
2022-12-08T23:26:26.710Z,91.16
2022-12-08T23:28:54.167Z,91.28
2022-12-08T23:31:21.526Z,90.90
2022-12-08T23:33:48.738Z,91.32
2022-12-08T23:36:19.946Z,91.41
2022-12-08T23:38:47.294Z,91.88
2022-12-08T23:41:15.516Z,91.75
2022-12-08T23:43:50.690Z,91.61
2022-12-08T23:46:19.867Z,91.48
2022-12-08T23:48:46.840Z,91.96
2022-12-08T23:51:14.056Z,91.48
2022-12-08T23:53:41.138Z,91.29
2022-12-08T23:56:10.620Z,91.42
